Time;durP1;ratioP1;P1;durP2;ratioP2;P2;SDS_P1;SDS_P2;PMS_P1;PMS_P2;Temp;Humidity;BMP_temperature;BMP_pressure;BME280_temperature;BME280_humidity;BME280_pressure;Samples;Min_cycle;Max_cycle;Signal;HPM_P1;HPM_P2
2023/01/28 00:01:47;;;;;;;8.75;3.00;;;0.90;99.90;;;;;;5031176;28;20063;-86
2023/01/28 00:04:14;;;;;;;8.85;3.35;;;0.80;99.90;;;;;;5025913;28;21193;-86
2023/01/28 00:06:40;;;;;;;10.52;3.15;;;0.80;99.90;;;;;;5030815;28;20034;-85
2023/01/28 00:09:06;;;;;;;8.13;3.42;;;0.80;99.90;;;;;;5027983;28;20470;-86
2023/01/28 00:11:32;;;;;;;5.10;3.30;;;0.80;99.90;;;;;;5032007;28;20110;-86
2023/01/28 00:13:58;;;;;;;5.93;3.00;;;0.80;99.90;;;;;;5038298;28;20044;-86
2023/01/28 00:16:25;;;;;;;8.50;3.40;;;0.80;99.90;;;;;;5038699;28;20025;-86
2023/01/28 00:18:51;;;;;;;7.03;3.10;;;0.80;99.90;;;;;;5033188;28;20425;-85
2023/01/28 00:21:17;;;;;;;12.43;4.25;;;0.80;99.90;;;;;;5039665;28;20025;-85
2023/01/28 00:23:49;;;;;;;6.93;2.83;;;0.80;99.90;;;;;;5036975;28;20063;-86
2023/01/28 00:26:14;;;;;;;6.53;3.08;;;0.80;99.90;;;;;;5034931;28;20116;-86
2023/01/28 00:28:41;;;;;;;9.82;2.88;;;0.80;99.90;;;;;;5030858;28;20113;-85
2023/01/28 00:31:26;;;;;;;8.45;3.83;;;0.80;99.90;;;;;;5031358;28;20026;-86
2023/01/28 00:33:53;;;;;;;10.23;4.25;;;0.80;99.90;;;;;;5035194;28;20037;-86
2023/01/28 00:36:23;;;;;;;4.75;3.13;;;0.80;99.90;;;;;;5037189;28;20033;-85
2023/01/28 00:38:50;;;;;;;9.75;3.45;;;0.70;99.90;;;;;;5029685;28;20041;-86
2023/01/28 00:41:17;;;;;;;7.07;3.70;;;0.70;99.90;;;;;;5033176;28;20119;-86
2023/01/28 00:43:44;;;;;;;6.57;2.83;;;0.70;99.90;;;;;;5033880;28;20299;-85
2023/01/28 00:46:11;;;;;;;9.45;3.67;;;0.70;99.90;;;;;;5037809;28;20029;-85
2023/01/28 00:48:37;;;;;;;6.50;3.95;;;0.80;99.90;;;;;;5031481;28;20028;-85
2023/01/28 00:51:03;;;;;;;10.40;3.90;;;0.80;99.90;;;;;;5038936;28;20036;-85
2023/01/28 00:53:29;;;;;;;9.35;3.45;;;0.80;99.90;;;;;;5034183;28;20029;-85
2023/01/28 00:55:55;;;;;;;12.25;4.55;;;0.70;99.90;;;;;;5034516;28;20033;-86
2023/01/28 00:58:23;;;;;;;16.77;4.28;;;0.70;99.90;;;;;;5031918;28;20072;-85
2023/01/28 01:00:50;;;;;;;16.23;4.43;;;0.70;99.90;;;;;;5043741;28;20055;-85
2023/01/28 01:03:16;;;;;;;7.78;4.00;;;0.70;99.90;;;;;;5036436;28;20091;-85
2023/01/28 01:05:42;;;;;;;13.15;4.38;;;0.70;99.90;;;;;;5036525;28;20022;-85
2023/01/28 01:08:07;;;;;;;12.45;3.88;;;0.70;99.90;;;;;;5035070;28;20420;-85
2023/01/28 01:10:33;;;;;;;11.07;4.32;;;0.70;99.90;;;;;;5031363;28;20100;-85
2023/01/28 01:12:59;;;;;;;14.15;4.40;;;0.70;99.90;;;;;;5030797;28;20029;-85
2023/01/28 01:15:25;;;;;;;12.77;4.68;;;0.70;99.90;;;;;;5032631;28;20087;-85
2023/01/28 01:17:51;;;;;;;13.02;4.85;;;0.70;99.90;;;;;;5037971;28;20041;-85
2023/01/28 01:20:20;;;;;;;10.45;4.35;;;0.70;99.90;;;;;;5030729;28;20163;-85
2023/01/28 01:22:45;;;;;;;11.93;4.60;;;0.70;99.90;;;;;;5029906;28;20052;-85
2023/01/28 01:25:16;;;;;;;9.90;4.28;;;0.70;99.90;;;;;;5033647;28;20034;-85
2023/01/28 01:27:42;;;;;;;6.20;4.00;;;0.60;99.90;;;;;;5029120;28;20030;-85
2023/01/28 01:30:09;;;;;;;11.27;4.57;;;0.70;99.90;;;;;;5032498;28;20037;-85
2023/01/28 01:32:35;;;;;;;12.90;4.40;;;0.70;99.90;;;;;;5037076;28;20030;-85
2023/01/28 01:35:04;;;;;;;12.95;4.63;;;0.70;99.90;;;;;;5033598;28;20052;-85
2023/01/28 01:37:30;;;;;;;14.18;4.65;;;0.70;99.90;;;;;;5037942;28;20112;-85
2023/01/28 01:39:56;;;;;;;8.32;4.18;;;0.70;99.90;;;;;;5035307;28;20118;-85
2023/01/28 01:42:23;;;;;;;8.00;3.88;;;0.70;99.90;;;;;;5025990;28;20393;-85
2023/01/28 01:45:06;;;;;;;8.30;3.83;;;0.70;99.90;;;;;;5034456;28;20041;-85
2023/01/28 01:47:38;;;;;;;15.23;4.93;;;0.60;99.90;;;;;;5041230;28;20033;-85
2023/01/28 01:50:12;;;;;;;14.35;4.63;;;0.60;99.90;;;;;;5032813;28;20021;-85
2023/01/28 01:52:39;;;;;;;15.45;4.97;;;0.60;99.90;;;;;;5035878;28;20127;-85
2023/01/28 01:55:11;;;;;;;15.13;4.60;;;0.60;99.90;;;;;;5041545;28;20171;-85
2023/01/28 01:57:37;;;;;;;7.85;3.60;;;0.60;99.90;;;;;;5041152;28;20027;-84
2023/01/28 02:00:06;;;;;;;9.85;4.60;;;0.60;99.90;;;;;;5033567;28;20503;-85
2023/01/28 02:02:37;;;;;;;11.38;4.13;;;0.50;99.90;;;;;;5038521;28;20056;-85
2023/01/28 02:05:03;;;;;;;8.05;4.13;;;0.50;99.90;;;;;;5038558;28;20410;-85
2023/01/28 02:07:30;;;;;;;7.07;3.47;;;0.50;99.90;;;;;;5039184;28;20082;-85
2023/01/28 02:09:55;;;;;;;12.50;4.45;;;0.50;99.90;;;;;;5033812;28;20065;-85
2023/01/28 02:12:26;;;;;;;5.85;4.13;;;0.60;99.90;;;;;;5036014;28;20556;-85
2023/01/28 02:15:12;;;;;;;18.63;5.30;;;0.50;99.90;;;;;;5041709;28;20393;-85
2023/01/28 02:17:38;;;;;;;;;;;0.50;99.90;;;;;;5034808;28;20068;-84
2023/01/28 02:20:10;;;;;;;17.00;4.68;;;0.50;99.90;;;;;;5034538;28;19959;-85
2023/01/28 02:22:54;;;;;;;9.65;4.18;;;0.60;99.90;;;;;;5029734;28;20026;-84
2023/01/28 02:25:57;;;;;;;12.05;3.83;;;0.50;99.90;;;;;;5034074;28;20117;-85
2023/01/28 02:28:36;;;;;;;9.80;4.18;;;0.50;99.90;;;;;;5040191;28;20035;-84
2023/01/28 02:31:13;;;;;;;4.80;3.50;;;0.50;99.90;;;;;;5033021;28;20033;-84
2023/01/28 02:34:09;;;;;;;17.02;4.85;;;0.50;99.90;;;;;;5029538;28;20486;-84
2023/01/28 02:36:56;;;;;;;8.18;3.83;;;0.50;99.90;;;;;;5028531;28;20044;-84
2023/01/28 02:39:53;;;;;;;8.10;3.42;;;0.50;99.90;;;;;;5039970;28;20033;-85
2023/01/28 02:42:21;;;;;;;13.13;4.40;;;0.50;99.90;;;;;;5036698;28;20474;-84
2023/01/28 02:44:47;;;;;;;20.00;4.75;;;0.40;99.90;;;;;;5038064;28;20490;-84
2023/01/28 02:50:03;;;;;;;15.88;3.60;;;0.50;99.90;;;;;;5036021;28;20072;-84
2023/01/28 02:55:38;;;;;;;12.77;3.85;;;0.50;99.90;;;;;;5025493;28;20032;-84
2023/01/28 02:58:16;;;;;;;9.93;3.88;;;0.50;99.90;;;;;;5034082;28;20041;-84
2023/01/28 03:01:07;;;;;;;10.18;4.50;;;0.50;99.90;;;;;;5030774;28;20094;-84
2023/01/28 03:04:17;;;;;;;10.75;3.55;;;0.50;99.90;;;;;;5027500;28;20104;-84
2023/01/28 03:06:52;;;;;;;8.30;4.20;;;0.50;99.90;;;;;;5014882;28;20034;-84
2023/01/28 03:09:22;;;;;;;11.07;3.58;;;0.50;99.90;;;;;;5035512;28;20030;-84
2023/01/28 03:37:07;;;;;;;6.15;2.75;;;0.40;99.90;;;;;;5036421;28;20114;-84
2023/01/28 03:39:33;;;;;;;6.65;3.30;;;0.40;99.90;;;;;;5034210;28;20203;-84
2023/01/28 03:42:06;;;;;;;12.18;4.05;;;0.50;99.90;;;;;;5038353;28;20040;-83
2023/01/28 03:44:54;;;;;;;8.55;3.67;;;0.40;99.90;;;;;;5030573;28;20255;-84
2023/01/28 03:47:23;;;;;;;8.02;3.55;;;0.40;99.90;;;;;;5033212;28;20013;-83
2023/01/28 03:49:51;;;;;;;11.85;3.97;;;0.40;99.90;;;;;;5033120;28;20120;-84
2023/01/28 03:52:19;;;;;;;13.98;5.90;;;0.40;99.90;;;;;;5036494;28;20017;-84
2023/01/28 03:54:48;;;;;;;15.98;4.30;;;0.40;99.90;;;;;;5033586;28;20234;-83
2023/01/28 03:57:16;;;;;;;12.65;5.13;;;0.40;99.90;;;;;;5034517;28;20029;-83
2023/01/28 03:59:41;;;;;;;11.52;4.18;;;0.40;99.90;;;;;;5023538;28;20488;-84
2023/01/28 04:02:09;;;;;;;7.97;3.65;;;0.40;99.90;;;;;;5034688;28;20171;-84
2023/01/28 04:04:40;;;;;;;8.82;4.20;;;0.40;99.90;;;;;;5033239;28;20063;-84
2023/01/28 04:07:07;;;;;;;9.13;4.13;;;0.40;99.90;;;;;;5035688;28;20034;-84
2023/01/28 04:09:34;;;;;;;10.15;4.28;;;0.40;99.90;;;;;;5029332;28;20033;-83
2023/01/28 04:12:00;;;;;;;16.17;3.90;;;0.40;99.90;;;;;;5030383;28;20037;-83
2023/01/28 04:14:26;;;;;;;19.23;4.90;;;0.40;99.90;;;;;;5041152;28;20120;-83
2023/01/28 04:16:53;;;;;;;9.55;3.67;;;0.40;99.90;;;;;;5030320;28;20032;-83
2023/01/28 04:19:22;;;;;;;12.00;4.40;;;0.40;99.90;;;;;;5036841;28;20021;-83
2023/01/28 04:21:48;;;;;;;23.17;4.63;;;0.40;99.90;;;;;;5038783;28;20438;-84
2023/01/28 04:24:14;;;;;;;7.10;4.05;;;0.50;99.90;;;;;;5036551;28;20049;-83
2023/01/28 04:26:40;;;;;;;8.57;3.97;;;0.40;99.90;;;;;;5027876;28;20033;-83
2023/01/28 04:29:06;;;;;;;12.35;4.85;;;0.40;99.90;;;;;;5035977;28;20025;-83
2023/01/28 04:31:34;;;;;;;11.98;5.05;;;0.40;99.90;;;;;;5031912;28;20025;-83
2023/01/28 04:33:59;;;;;;;8.32;3.80;;;0.40;99.90;;;;;;5035321;28;20470;-83
2023/01/28 04:36:25;;;;;;;13.32;4.20;;;0.40;99.90;;;;;;5024600;28;20029;-83
2023/01/28 04:38:52;;;;;;;13.57;5.00;;;0.40;99.90;;;;;;5026244;28;20552;-83
2023/01/28 04:41:18;;;;;;;9.50;4.63;;;0.40;99.90;;;;;;5033075;28;20017;-83
2023/01/28 04:43:44;;;;;;;10.90;4.78;;;0.40;99.90;;;;;;5034960;28;20091;-83
2023/01/28 04:46:10;;;;;;;13.55;4.68;;;0.40;99.90;;;;;;5028818;28;20462;-83
2023/01/28 04:48:36;;;;;;;7.82;3.75;;;0.40;99.90;;;;;;5039824;28;20117;-83
2023/01/28 04:51:02;;;;;;;8.38;4.13;;;0.30;99.90;;;;;;5044176;28;20120;-83
2023/01/28 04:53:29;;;;;;;13.90;5.50;;;0.30;99.90;;;;;;5029676;28;20025;-84
2023/01/28 04:55:55;;;;;;;11.20;4.30;;;0.40;99.90;;;;;;5034672;28;20028;-83
2023/01/28 04:58:21;;;;;;;8.68;4.70;;;0.40;99.90;;;;;;5034843;28;20033;-83
2023/01/28 05:00:50;;;;;;;14.95;5.28;;;0.40;99.90;;;;;;5036044;28;20417;-84
2023/01/28 05:03:16;;;;;;;11.02;4.95;;;0.40;99.90;;;;;;5033322;28;20140;-83
2023/01/28 05:05:41;;;;;;;10.70;5.18;;;0.40;99.90;;;;;;5023580;28;20065;-83
2023/01/28 05:08:09;;;;;;;10.52;5.70;;;0.30;99.90;;;;;;5038385;28;20028;-83
2023/01/28 05:10:34;;;;;;;14.52;6.43;;;0.30;99.90;;;;;;5036501;28;20028;-83
2023/01/28 05:13:00;;;;;;;18.17;7.25;;;0.30;99.90;;;;;;5031041;28;20033;-83
2023/01/28 05:15:35;;;;;;;22.40;6.88;;;0.30;99.90;;;;;;5034338;28;20103;-82
2023/01/28 05:18:00;;;;;;;11.05;4.35;;;0.30;99.90;;;;;;5022683;28;20592;-83
2023/01/28 05:20:26;;;;;;;15.15;6.70;;;0.30;99.90;;;;;;5026829;28;20112;-84
2023/01/28 05:22:51;;;;;;;13.60;7.75;;;0.30;99.90;;;;;;5027444;28;20059;-83
2023/01/28 05:25:17;;;;;;;15.65;6.93;;;0.30;99.90;;;;;;5035123;28;20337;-83
2023/01/28 05:27:43;;;;;;;17.05;7.15;;;0.30;99.90;;;;;;5030725;28;20065;-83
2023/01/28 05:30:11;;;;;;;12.52;6.38;;;0.30;99.90;;;;;;5030009;28;20051;-83
2023/01/28 05:32:37;;;;;;;14.32;6.85;;;0.30;99.90;;;;;;5038131;28;20122;-84
2023/01/28 05:35:03;;;;;;;11.73;6.55;;;0.40;99.90;;;;;;5036251;28;20490;-83
2023/01/28 05:37:28;;;;;;;18.85;6.32;;;0.30;99.90;;;;;;5029322;28;20031;-83
2023/01/28 05:39:54;;;;;;;15.18;7.15;;;0.30;99.90;;;;;;5036854;28;20112;-84
2023/01/28 05:42:21;;;;;;;14.25;6.28;;;0.30;99.90;;;;;;5032208;28;20045;-83
2023/01/28 05:44:46;;;;;;;13.10;6.72;;;0.30;99.90;;;;;;5026137;28;20049;-82
2023/01/28 05:47:12;;;;;;;15.25;6.20;;;0.30;99.90;;;;;;5031692;28;20021;-83
2023/01/28 05:49:38;;;;;;;8.85;5.43;;;0.30;99.90;;;;;;5035904;28;20031;-83
2023/01/28 05:52:03;;;;;;;9.95;5.57;;;0.30;99.90;;;;;;5034840;28;20039;-83
2023/01/28 05:54:29;;;;;;;13.13;5.95;;;0.30;99.90;;;;;;5025956;28;20030;-82
2023/01/28 05:56:55;;;;;;;13.05;5.47;;;0.30;99.90;;;;;;5032939;28;20028;-82
2023/01/28 05:59:20;;;;;;;19.92;5.90;;;0.20;99.90;;;;;;5034102;28;20028;-83
2023/01/28 06:01:46;;;;;;;11.07;5.45;;;0.20;99.90;;;;;;5033194;28;20467;-83
2023/01/28 06:04:11;;;;;;;9.25;5.50;;;0.20;99.90;;;;;;5031844;28;20041;-83
2023/01/28 06:06:37;;;;;;;12.43;5.18;;;0.20;99.90;;;;;;5028801;28;20486;-83
2023/01/28 06:09:03;;;;;;;14.18;5.45;;;0.20;99.90;;;;;;5027098;28;20030;-83
2023/01/28 06:11:31;;;;;;;15.77;6.47;;;0.20;99.90;;;;;;5029494;28;20108;-82
2023/01/28 06:13:57;;;;;;;9.48;5.60;;;0.20;99.90;;;;;;5030840;28;20390;-83
2023/01/28 06:16:22;;;;;;;7.00;5.55;;;0.20;99.90;;;;;;5034614;28;20022;-83
2023/01/28 06:18:48;;;;;;;7.65;5.32;;;0.20;99.90;;;;;;5028151;28;20029;-83
2023/01/28 06:21:13;;;;;;;12.10;6.32;;;0.20;99.90;;;;;;5032958;28;20780;-82
2023/01/28 06:23:39;;;;;;;7.50;5.30;;;0.30;99.90;;;;;;5028240;28;20083;-82
2023/01/28 06:26:05;;;;;;;9.23;5.47;;;0.30;99.90;;;;;;5030326;28;20033;-82
2023/01/28 06:28:31;;;;;;;8.98;5.43;;;0.30;99.90;;;;;;5029983;28;20033;-82
2023/01/28 06:30:57;;;;;;;13.50;6.18;;;0.30;99.90;;;;;;5037735;28;20032;-82
2023/01/28 06:33:23;;;;;;;9.05;5.35;;;0.30;99.90;;;;;;5041060;28;20025;-82
2023/01/28 06:35:50;;;;;;;7.47;4.70;;;0.30;99.90;;;;;;5035554;28;20026;-82
2023/01/28 06:38:15;;;;;;;7.82;4.88;;;0.30;99.90;;;;;;5032317;28;20018;-82
2023/01/28 06:40:41;;;;;;;14.52;4.97;;;0.30;99.90;;;;;;5036343;28;20036;-83
2023/01/28 06:43:07;;;;;;;11.90;6.05;;;0.20;99.90;;;;;;5033933;28;20025;-83
2023/01/28 06:45:32;;;;;;;10.50;5.68;;;0.20;99.90;;;;;;5037996;28;20017;-82
2023/01/28 06:48:01;;;;;;;13.40;6.75;;;0.20;99.90;;;;;;5027406;28;20026;-82
2023/01/28 06:50:26;;;;;;;9.57;5.28;;;0.20;99.90;;;;;;5030516;28;20025;-82
2023/01/28 06:52:52;;;;;;;7.85;5.60;;;0.20;99.90;;;;;;5036226;28;20040;-82
2023/01/28 06:55:18;;;;;;;12.45;6.45;;;0.20;99.90;;;;;;5031437;28;20045;-82
2023/01/28 06:57:44;;;;;;;9.13;5.55;;;0.20;99.90;;;;;;5038081;28;20139;-82
2023/01/28 07:00:12;;;;;;;9.43;5.68;;;0.20;99.90;;;;;;5029897;28;20068;-82
2023/01/28 07:02:39;;;;;;;12.40;5.55;;;0.20;99.90;;;;;;5032961;28;20061;-82
2023/01/28 07:05:05;;;;;;;11.98;5.47;;;0.20;99.90;;;;;;5028504;28;20033;-82
2023/01/28 07:07:31;;;;;;;9.23;4.68;;;0.20;99.90;;;;;;5032499;28;20137;-82
2023/01/28 07:09:57;;;;;;;8.00;5.30;;;0.20;99.90;;;;;;5026153;28;20120;-82
2023/01/28 07:12:23;;;;;;;8.15;5.05;;;0.20;99.90;;;;;;5030471;28;20103;-82
2023/01/28 07:14:48;;;;;;;9.25;4.95;;;0.20;99.90;;;;;;5042408;28;20033;-82
2023/01/28 07:17:14;;;;;;;13.32;5.60;;;0.20;99.90;;;;;;5032328;28;20033;-82
2023/01/28 07:19:40;;;;;;;7.00;5.13;;;0.10;99.90;;;;;;5033872;28;20163;-82
2023/01/28 07:22:06;;;;;;;11.20;5.45;;;0.10;99.90;;;;;;5033295;28;20041;-82
2023/01/28 07:24:31;;;;;;;9.30;5.18;;;0.10;99.90;;;;;;5031299;28;20049;-82
2023/01/28 07:26:57;;;;;;;9.43;5.03;;;0.10;99.90;;;;;;5028388;28;20226;-82
2023/01/28 07:29:23;;;;;;;8.95;5.68;;;0.20;99.90;;;;;;5037244;28;20363;-82
2023/01/28 07:31:48;;;;;;;7.38;5.80;;;0.10;99.90;;;;;;5031467;28;20112;-82
2023/01/28 07:34:14;;;;;;;8.38;5.13;;;0.20;99.90;;;;;;5034554;28;20025;-83
2023/01/28 07:36:40;;;;;;;7.25;5.20;;;0.10;99.90;;;;;;5031527;28;20033;-82
2023/01/28 07:39:08;;;;;;;8.57;5.30;;;0.20;99.90;;;;;;5035183;28;20562;-82
2023/01/28 07:41:34;;;;;;;9.95;5.22;;;0.20;99.90;;;;;;5031768;28;20115;-82
2023/01/28 07:43:59;;;;;;;9.90;5.60;;;0.20;99.90;;;;;;5031822;28;20433;-83
2023/01/28 07:46:25;;;;;;;10.27;6.35;;;0.20;99.90;;;;;;5037796;28;20117;-82
2023/01/28 07:48:50;;;;;;;9.23;4.80;;;0.20;99.90;;;;;;5031453;28;20041;-82
2023/01/28 07:51:16;;;;;;;8.70;4.78;;;0.20;99.90;;;;;;5031971;28;20032;-82
2023/01/28 07:53:42;;;;;;;10.05;4.43;;;0.20;99.90;;;;;;5041734;28;20356;-83
2023/01/28 07:56:07;;;;;;;9.93;4.30;;;0.20;99.90;;;;;;5041805;28;20030;-83
2023/01/28 07:58:34;;;;;;;6.35;4.20;;;0.20;99.90;;;;;;5033878;28;20037;-82
2023/01/28 08:01:00;;;;;;;7.13;4.15;;;0.20;99.90;;;;;;5022135;28;20025;-83
2023/01/28 08:03:27;;;;;;;8.23;5.13;;;0.20;99.90;;;;;;5038476;28;20047;-83
2023/01/28 08:05:54;;;;;;;17.38;5.75;;;0.20;99.90;;;;;;5029229;28;20033;-82
2023/01/28 08:08:21;;;;;;;8.45;5.22;;;0.20;99.90;;;;;;5024728;28;20036;-83
2023/01/28 08:10:47;;;;;;;9.77;5.22;;;0.20;99.90;;;;;;5022797;28;20425;-82
2023/01/28 08:13:14;;;;;;;12.60;4.18;;;0.20;99.90;;;;;;5023065;28;20036;-83
2023/01/28 08:15:40;;;;;;;7.35;4.65;;;0.20;99.90;;;;;;5033801;28;20038;-83
2023/01/28 08:18:07;;;;;;;9.07;4.32;;;0.20;99.90;;;;;;5022745;28;20034;-82
2023/01/28 08:20:35;;;;;;;6.45;3.97;;;0.20;99.90;;;;;;5020304;28;20022;-82
2023/01/28 08:23:04;;;;;;;6.22;3.90;;;0.20;99.90;;;;;;5025728;28;20052;-83
2023/01/28 08:25:30;;;;;;;9.52;4.30;;;0.20;99.90;;;;;;5023738;28;20108;-83
2023/01/28 08:27:55;;;;;;;5.60;3.72;;;0.20;99.90;;;;;;5027408;28;20545;-82
2023/01/28 08:30:21;;;;;;;7.80;4.45;;;0.20;99.90;;;;;;5022091;28;20079;-83
2023/01/28 08:32:46;;;;;;;5.32;3.70;;;0.20;99.90;;;;;;5033375;28;20049;-83
2023/01/28 08:35:12;;;;;;;9.00;4.80;;;0.20;99.90;;;;;;5037304;28;20025;-82
2023/01/28 08:37:37;;;;;;;11.48;4.72;;;0.20;99.90;;;;;;5030324;28;20433;-82
2023/01/28 08:40:04;;;;;;;10.68;4.63;;;0.20;99.90;;;;;;5022387;28;20371;-83
2023/01/28 08:42:29;;;;;;;8.30;4.55;;;0.20;99.90;;;;;;5027625;28;20646;-83
2023/01/28 08:44:55;;;;;;;7.10;3.92;;;0.20;99.90;;;;;;5030896;28;20112;-82
2023/01/28 08:47:20;;;;;;;7.80;4.47;;;0.20;99.90;;;;;;5030205;28;20026;-83
2023/01/28 08:49:46;;;;;;;8.10;4.80;;;0.20;99.90;;;;;;5030969;28;20071;-83
2023/01/28 08:52:11;;;;;;;8.60;4.50;;;0.30;99.90;;;;;;5033231;28;20033;-84
2023/01/28 08:54:37;;;;;;;5.80;4.18;;;0.20;99.90;;;;;;5028321;28;20973;-84
2023/01/28 08:57:03;;;;;;;7.88;4.32;;;0.30;99.90;;;;;;5034567;28;20470;-84
2023/01/28 08:59:29;;;;;;;4.72;3.80;;;0.30;99.90;;;;;;5025829;28;20029;-83
2023/01/28 09:01:54;;;;;;;6.07;4.05;;;0.30;99.90;;;;;;5024839;28;20342;-83
2023/01/28 09:04:20;;;;;;;6.32;4.43;;;0.20;99.90;;;;;;5026008;28;20041;-83
2023/01/28 09:06:45;;;;;;;6.03;3.65;;;0.30;99.90;;;;;;5038468;28;20488;-83
2023/01/28 09:09:11;;;;;;;12.65;5.32;;;0.30;99.90;;;;;;5036155;28;20029;-82
2023/01/28 09:11:36;;;;;;;8.85;4.50;;;0.30;99.90;;;;;;5034267;28;20034;-83
2023/01/28 09:14:02;;;;;;;15.57;4.95;;;0.30;99.90;;;;;;5027540;28;20119;-83
2023/01/28 09:16:27;;;;;;;10.70;5.88;;;0.30;99.90;;;;;;5029294;28;20087;-82
2023/01/28 09:18:53;;;;;;;7.78;4.88;;;0.30;99.90;;;;;;5030844;28;20029;-83
2023/01/28 09:21:19;;;;;;;6.50;4.13;;;0.30;99.90;;;;;;5031390;28;20036;-83
2023/01/28 09:23:45;;;;;;;5.57;3.97;;;0.30;99.90;;;;;;5028770;28;20486;-83
2023/01/28 09:26:11;;;;;;;5.85;4.18;;;0.30;99.90;;;;;;5027205;28;20084;-81
2023/01/28 09:28:37;;;;;;;6.47;3.97;;;0.30;99.90;;;;;;5029680;28;20021;-83
2023/01/28 09:31:04;;;;;;;7.35;4.80;;;0.30;99.90;;;;;;5030893;28;20292;-82
2023/01/28 09:33:31;;;;;;;8.40;4.30;;;0.30;99.90;;;;;;5027211;28;20025;-82
2023/01/28 09:36:00;;;;;;;8.32;4.00;;;0.40;99.90;;;;;;5031058;28;20370;-82
2023/01/28 09:38:26;;;;;;;6.95;3.80;;;0.30;99.90;;;;;;5031017;28;20021;-82
2023/01/28 09:40:51;;;;;;;6.32;3.55;;;0.30;99.90;;;;;;5028754;28;20125;-82
2023/01/28 09:43:32;;;;;;;10.07;4.78;;;0.30;99.90;;;;;;5032485;28;21183;-82
2023/01/28 09:46:02;;;;;;;8.43;3.90;;;0.30;99.90;;;;;;5024362;28;20021;-82
2023/01/28 09:48:36;;;;;;;7.03;4.55;;;0.30;99.90;;;;;;5018827;28;20060;-82
2023/01/28 09:51:06;;;;;;;6.93;5.23;;;0.30;99.90;;;;;;5022017;28;20021;-83
2023/01/28 09:53:37;;;;;;;5.38;3.22;;;0.40;99.90;;;;;;5033208;28;20052;-82
2023/01/28 09:56:31;;;;;;;4.93;3.05;;;0.40;99.90;;;;;;5028905;28;20024;-82
2023/01/28 09:59:18;;;;;;;9.15;3.55;;;0.30;99.90;;;;;;5026996;28;20073;-82
2023/01/28 10:01:56;;;;;;;5.07;2.95;;;0.40;99.90;;;;;;5032275;28;20082;-82
2023/01/28 10:04:57;;;;;;;6.63;3.10;;;0.40;99.90;;;;;;5032021;28;20462;-82
2023/01/28 10:07:43;;;;;;;7.65;3.15;;;0.30;99.90;;;;;;5023118;28;20049;-82
2023/01/28 10:10:15;;;;;;;7.95;3.35;;;0.30;99.90;;;;;;5032863;28;20041;-81
2023/01/28 10:13:10;;;;;;;9.63;3.45;;;0.30;99.90;;;;;;5033253;28;20033;-82
2023/01/28 10:15:45;;;;;;;6.73;3.10;;;0.30;99.90;;;;;;5034605;28;20033;-82
2023/01/28 10:18:12;;;;;;;7.03;2.93;;;0.40;99.90;;;;;;5033717;28;20083;-82
2023/01/28 10:20:52;;;;;;;5.47;3.63;;;0.40;99.90;;;;;;5032353;28;20272;-82
2023/01/28 10:23:27;;;;;;;9.80;3.38;;;0.30;99.90;;;;;;5028548;28;20103;-83
2023/01/28 10:25:56;;;;;;;6.93;2.80;;;0.30;99.90;;;;;;5031717;28;20370;-82
2023/01/28 10:28:26;;;;;;;5.78;3.40;;;0.30;99.90;;;;;;5029120;28;20025;-83
2023/01/28 10:30:52;;;;;;;5.97;3.67;;;0.30;99.90;;;;;;5029645;28;20029;-82
2023/01/28 10:33:32;;;;;;;3.03;2.70;;;0.30;99.90;;;;;;5027651;28;20044;-82
2023/01/28 10:35:57;;;;;;;5.47;2.50;;;0.30;99.90;;;;;;5030791;28;20041;-82
2023/01/28 10:38:25;;;;;;;8.13;3.30;;;0.30;99.90;;;;;;5031822;28;20025;-85
2023/01/28 10:40:51;;;;;;;6.55;4.13;;;0.20;99.90;;;;;;5028138;28;20053;-85
2023/01/28 10:43:21;;;;;;;8.07;4.30;;;0.30;99.90;;;;;;5024821;28;20494;-85
2023/01/28 10:46:08;;;;;;;8.35;3.25;;;0.30;99.90;;;;;;5027927;28;20411;-85
2023/01/28 10:48:40;;;;;;;7.05;4.00;;;0.30;99.90;;;;;;5038654;28;20044;-85
2023/01/28 10:51:06;;;;;;;6.47;3.42;;;0.30;99.90;;;;;;5031601;28;20502;-85
2023/01/28 10:53:38;;;;;;;6.47;3.05;;;0.30;99.90;;;;;;5037319;28;20128;-85
2023/01/28 10:56:08;;;;;;;4.28;2.55;;;0.30;99.90;;;;;;5046826;28;20025;-85
2023/01/28 10:58:58;;;;;;;3.30;2.30;;;0.30;99.90;;;;;;5038874;28;20065;-84
2023/01/28 11:01:24;;;;;;;5.95;2.15;;;0.30;99.90;;;;;;5036339;28;20033;-84
2023/01/28 11:03:55;;;;;;;6.45;3.22;;;0.30;99.90;;;;;;5032244;28;20049;-87
2023/01/28 11:06:28;;;;;;;5.28;2.90;;;0.30;99.90;;;;;;5021168;28;20478;-87
2023/01/28 11:08:54;;;;;;;3.80;2.40;;;0.30;99.90;;;;;;5022661;28;20029;-85
2023/01/28 11:11:26;;;;;;;5.93;2.53;;;0.40;99.90;;;;;;5037796;28;20040;-85
2023/01/28 11:13:54;;;;;;;6.18;2.13;;;0.40;99.90;;;;;;5018729;28;20044;-87
2023/01/28 11:16:25;;;;;;;5.93;2.50;;;0.40;99.90;;;;;;5030616;28;20056;-84
2023/01/28 11:18:50;;;;;;;11.20;3.13;;;0.40;99.90;;;;;;5027405;28;20068;-87
2023/01/28 11:21:20;;;;;;;9.75;3.35;;;0.40;99.90;;;;;;5031582;28;20045;-85
2023/01/28 11:24:13;;;;;;;9.25;2.83;;;0.40;99.90;;;;;;5027451;28;20443;-89
2023/01/28 11:26:48;;;;;;;11.07;2.65;;;0.40;99.90;;;;;;5038780;28;20056;-87
2023/01/28 11:29:30;;;;;;;3.90;2.33;;;0.40;99.90;;;;;;5023692;28;20064;-88
2023/01/28 11:31:57;;;;;;;9.32;2.78;;;0.40;99.90;;;;;;5024725;28;20033;-87
2023/01/28 11:34:29;;;;;;;5.53;3.58;;;0.40;99.90;;;;;;5021773;28;20037;-87
2023/01/28 11:37:12;;;;;;;8.00;3.10;;;0.30;99.90;;;;;;5022420;28;20355;-86
2023/01/28 11:39:38;;;;;;;3.83;2.88;;;0.30;99.90;;;;;;5029039;28;20513;-86
2023/01/28 11:42:17;;;;;;;4.20;2.65;;;0.40;99.90;;;;;;5035649;28;20121;-88
2023/01/28 11:44:43;;;;;;;26.70;9.10;;;0.30;99.90;;;;;;5027966;28;20099;-89
2023/01/28 11:47:30;;;;;;;22.08;9.93;;;0.30;99.90;;;;;;5027654;28;21260;-88
2023/01/28 11:50:21;;;;;;;23.83;8.38;;;0.40;99.90;;;;;;5026150;28;20030;-86
2023/01/28 11:53:08;;;;;;;21.33;8.45;;;0.40;99.90;;;;;;5034390;28;20060;-88
2023/01/28 11:55:51;;;;;;;15.88;3.83;;;0.40;99.90;;;;;;5037056;28;20493;-88
2023/01/28 11:58:59;;;;;;;7.40;3.20;;;0.40;99.90;;;;;;5035523;28;20056;-88
2023/01/28 12:01:45;;;;;;;5.93;4.18;;;0.40;99.90;;;;;;5022681;28;20025;-87
2023/01/28 12:04:10;;;;;;;;;;;0.40;99.90;;;;;;5019126;28;20048;-89
2023/01/28 12:06:49;;;;;;;6.57;3.22;;;0.40;99.90;;;;;;5021342;28;19912;-88
2023/01/28 12:09:26;;;;;;;6.28;3.22;;;0.50;99.90;;;;;;5025345;28;20569;-86
2023/01/28 12:12:10;;;;;;;11.27;3.25;;;0.50;99.90;;;;;;5029967;28;20033;-88
2023/01/28 12:14:44;;;;;;;6.35;3.05;;;0.40;99.90;;;;;;5026389;28;20035;-88
2023/01/28 12:17:19;;;;;;;8.15;3.38;;;0.40;99.90;;;;;;5022775;28;20014;-86
2023/01/28 12:20:37;;;;;;;12.32;3.78;;;0.40;99.90;;;;;;5025204;28;20124;-88
2023/01/28 12:23:18;;;;;;;7.22;3.78;;;0.40;99.90;;;;;;5008334;28;20062;-87
2023/01/28 12:25:58;;;;;;;4.18;2.92;;;0.40;99.90;;;;;;5027969;28;20041;-85
2023/01/28 12:29:11;;;;;;;8.38;2.70;;;0.30;99.90;;;;;;5029700;28;20041;-86
2023/01/28 12:32:17;;;;;;;6.97;3.08;;;0.30;99.90;;;;;;5024141;28;20077;-89
2023/01/28 12:34:59;;;;;;;8.48;4.45;;;0.30;99.90;;;;;;5023223;28;20040;-89
2023/01/28 12:37:47;;;;;;;6.43;3.67;;;0.30;99.90;;;;;;5031598;28;20033;-87
2023/01/28 12:40:50;;;;;;;7.60;3.60;;;0.30;99.90;;;;;;5034645;28;20033;-88
2023/01/28 12:43:21;;;;;;;3.83;2.95;;;0.30;99.90;;;;;;5024523;28;20498;-88
2023/01/28 12:45:54;;;;;;;5.22;2.92;;;0.40;99.90;;;;;;5034064;28;20116;-88
2023/01/28 12:48:28;;;;;;;9.40;3.17;;;0.40;99.90;;;;;;5036910;28;20572;-88
2023/01/28 12:51:06;;;;;;;5.72;3.30;;;0.40;99.90;;;;;;5027148;28;20053;-85
2023/01/28 12:53:37;;;;;;;5.90;2.83;;;0.40;99.90;;;;;;5022162;28;20033;-87
2023/01/28 12:56:24;;;;;;;5.10;3.08;;;0.40;99.90;;;;;;5027398;28;20044;-88
2023/01/28 12:58:55;;;;;;;10.13;3.53;;;0.40;99.90;;;;;;5028560;28;20025;-87
2023/01/28 13:01:28;;;;;;;4.28;2.85;;;0.40;99.90;;;;;;5032098;28;20362;-88
2023/01/28 13:03:56;;;;;;;4.60;3.08;;;0.40;99.90;;;;;;5030451;28;20536;-87
2023/01/28 13:06:28;;;;;;;11.18;3.60;;;0.30;99.90;;;;;;5030420;28;20068;-88
2023/01/28 13:08:59;;;;;;;4.85;3.10;;;0.40;99.90;;;;;;5022125;28;20057;-87
2023/01/28 13:11:32;;;;;;;10.45;3.10;;;0.40;99.90;;;;;;5022165;28;20053;-85
2023/01/28 13:13:58;;;;;;;8.52;2.75;;;0.40;99.90;;;;;;5018913;28;20079;-87
2023/01/28 13:16:24;;;;;;;5.28;2.90;;;0.50;99.90;;;;;;5027891;28;20029;-87
2023/01/28 13:18:49;;;;;;;4.88;2.80;;;0.50;99.90;;;;;;5020865;28;20158;-88
2023/01/28 13:21:28;;;;;;;5.65;2.85;;;0.50;99.90;;;;;;5019907;28;20648;-88
2023/01/28 13:24:19;;;;;;;14.50;4.05;;;0.40;99.90;;;;;;5021664;28;20049;-87
2023/01/28 13:26:55;;;;;;;7.65;2.65;;;0.40;99.90;;;;;;5033607;28;20359;-87
2023/01/28 13:29:24;;;;;;;10.35;3.58;;;0.40;99.90;;;;;;5018031;28;20026;-88
2023/01/28 13:31:53;;;;;;;4.68;2.38;;;0.50;99.90;;;;;;5030786;28;20084;-88
2023/01/28 13:34:39;;;;;;;5.65;2.85;;;0.50;99.90;;;;;;5023235;28;20021;-87
2023/01/28 13:37:27;;;;;;;6.80;2.90;;;0.40;99.90;;;;;;5023367;28;20068;-88
2023/01/28 13:40:05;;;;;;;4.07;2.92;;;0.40;99.90;;;;;;5033017;28;20025;-87
2023/01/28 13:42:31;;;;;;;3.22;2.28;;;0.40;99.90;;;;;;5049206;28;20037;-88